Time;durP1;ratioP1;P1;durP2;ratioP2;P2;SDS_P1;SDS_P2;PMS_P1;PMS_P2;Temp;Humidity;BMP_temperature;BMP_pressure;BME280_temperature;BME280_humidity;BME280_pressure;Samples;Min_cycle;Max_cycle;Signal;HPM_P1;HPM_P2
2022/10/01 00:01:52;;;;;;;;;;;;;;;13.77;100.00;99643.94;5011219;28;19964;-73
2022/10/01 00:04:18;;;;;;;;;;;;;;;13.80;100.00;99638.31;5010380;28;19961;-73
2022/10/01 00:06:43;;;;;;;;;;;;;;;13.74;100.00;99638.94;5012793;28;19947;-73
2022/10/01 00:09:08;;;;;;;;;;;;;;;13.70;100.00;99645.56;5006632;28;19983;-73
2022/10/01 00:11:34;;;;;;;;;;;;;;;13.77;100.00;99644.78;5011230;28;20007;-73
2022/10/01 00:14:00;;;;;;;;;;;;;;;13.70;100.00;99646.41;5010550;28;19917;-73
2022/10/01 00:16:27;;;;;;;;;;;;;;;13.74;100.00;99647.75;5011606;28;19948;-73
2022/10/01 00:18:53;;;;;;;;;;;;;;;13.78;100.00;99656.22;5008265;28;19956;-73
2022/10/01 00:21:20;;;;;;;;;;;;;;;13.79;100.00;99657.84;5013251;28;19956;-73
2022/10/01 00:23:45;;;;;;;;;;;;;;;13.75;100.00;99654.72;5005663;28;19917;-73
2022/10/01 00:26:13;;;;;;;;;;;;;;;13.81;100.00;99650.59;5009848;28;19924;-74
2022/10/01 00:28:39;;;;;;;;;;;;;;;13.88;100.00;99662.22;5010942;28;19925;-73
2022/10/01 00:31:05;;;;;;;;;;;;;;;13.81;100.00;99659.38;5010142;28;19921;-73
2022/10/01 00:33:31;;;;;;;;;;;;;;;13.83;100.00;99665.34;5010248;28;19917;-73
2022/10/01 00:35:57;;;;;;;;;;;;;;;13.87;100.00;99663.19;5009891;28;20062;-73
2022/10/01 00:38:23;;;;;;;;;;;;;;;13.87;100.00;99661.38;5013070;28;19940;-73
2022/10/01 00:40:48;;;;;;;;;;;;;;;13.77;100.00;99659.88;5008716;28;20298;-73
2022/10/01 00:43:20;;;;;;;;;;;;;;;13.81;100.00;99666.50;4992142;28;19973;-73
2022/10/01 00:45:46;;;;;;;;;;;;;;;13.80;100.00;99662.19;4991741;28;20357;-73
2022/10/01 00:48:12;;;;;;;;;;;;;;;13.85;100.00;99667.81;5005808;28;19965;-73
2022/10/01 00:50:37;;;;;;;;;;;;;;;13.91;100.00;99672.50;5008848;28;19965;-73
2022/10/01 00:53:05;;;;;;;;;;;;;;;13.91;100.00;99656.56;5009318;28;19918;-72
2022/10/01 00:55:33;;;;;;;;;;;;;;;13.92;100.00;99660.91;5012170;28;19971;-73
2022/10/01 00:57:58;;;;;;;;;;;;;;;13.96;100.00;99654.25;5008106;28;19922;-73
2022/10/01 01:00:24;;;;;;;;;;;;;;;13.98;100.00;99652.28;5007288;28;19922;-71
2022/10/01 01:02:50;;;;;;;;;;;;;;;13.97;100.00;99650.63;5007150;28;19928;-73
2022/10/01 01:05:15;;;;;;;;;;;;;;;14.00;100.00;99650.31;5010371;28;19953;-72
2022/10/01 01:07:44;;;;;;;;;;;;;;;14.01;100.00;99641.38;5010286;28;19955;-73
2022/10/01 01:10:10;;;;;;;;;;;;;;;14.03;100.00;99647.31;5007936;28;19921;-72
2022/10/01 01:12:47;;;;;;;;;;;;;;;14.02;100.00;99648.31;4996017;28;19924;-72
2022/10/01 01:15:19;;;;;;;;;;;;;;;13.96;100.00;99651.59;5008457;28;20374;-74
2022/10/01 01:18:17;;;;;;;;;;;;;;;13.90;100.00;99650.44;5005373;28;19921;-72
2022/10/01 01:20:48;;;;;;;;;;;;;;;13.90;100.00;99652.28;4962122;28;20370;-71
2022/10/01 01:23:13;;;;;;;;;;;;;;;13.95;100.00;99657.94;5005021;28;20016;-72
2022/10/01 01:25:54;;;;;;;;;;;;;;;13.97;100.00;99655.94;5008725;28;20051;-72
2022/10/01 01:28:33;;;;;;;;;;;;;;;13.96;100.00;99656.91;5006928;28;20293;-72
2022/10/01 01:31:02;;;;;;;;;;;;;;;13.89;100.00;99663.88;5009517;28;20331;-72
2022/10/01 01:33:29;;;;;;;;;;;;;;;13.80;100.00;99654.22;5011595;28;19917;-72
2022/10/01 01:36:03;;;;;;;;;;;;;;;13.76;100.00;99652.91;5009667;28;19914;-73
2022/10/01 01:38:31;;;;;;;;;;;;;;;13.65;100.00;99648.72;5011607;28;19917;-73
2022/10/01 01:40:59;;;;;;;;;;;;;;;13.60;100.00;99653.66;5008313;28;19914;-72
2022/10/01 01:43:44;;;;;;;;;;;;;;;13.44;100.00;99658.88;5008436;28;19917;-72
2022/10/01 01:46:11;;;;;;;;;;;;;;;13.36;100.00;99656.22;5010957;28;19929;-72
2022/10/01 01:48:38;;;;;;;;;;;;;;;13.37;100.00;99653.38;5009115;28;20016;-72
2022/10/01 01:51:07;;;;;;;12.43;11.32;;;;;;;13.43;100.00;99641.34;5006447;28;20449;-72
2022/10/01 01:53:33;;;;;;;14.07;12.88;;;;;;;13.45;100.00;99637.53;5009365;28;20034;-72
2022/10/01 01:55:59;;;;;;;13.80;12.50;;;;;;;13.45;100.00;99634.88;5008036;28;20046;-72
2022/10/01 01:58:26;;;;;;;13.20;12.10;;;;;;;13.51;100.00;99646.66;5010266;28;20387;-73
2022/10/01 02:00:54;;;;;;;13.35;11.98;;;;;;;13.44;100.00;99648.28;5005340;28;20113;-73
2022/10/01 02:03:24;;;;;;;13.13;11.85;;;;;;;13.33;100.00;99660.00;5010675;28;20026;-73
2022/10/01 02:06:30;;;;;;;13.68;12.57;;;;;;;13.34;100.00;99653.72;5006777;28;20030;-73
2022/10/01 02:09:06;;;;;;;13.13;12.02;;;;;;;13.41;100.00;99660.03;5000367;28;20080;-73
2022/10/01 02:11:40;;;;;;;13.18;11.98;;;;;;;13.46;100.00;99655.09;5008140;28;20056;-72
2022/10/01 02:14:34;;;;;;;12.90;11.88;;;;;;;13.55;100.00;99644.53;5007957;28;20042;-73
2022/10/01 02:17:05;;;;;;;13.05;11.80;;;;;;;13.57;100.00;99640.72;4996914;28;20046;-73
2022/10/01 02:19:47;;;;;;;14.20;11.65;;;;;;;13.60;100.00;99647.53;5007108;28;20497;-72
2022/10/01 02:22:20;;;;;;;14.05;12.55;;;;;;;13.59;100.00;99651.16;5007700;28;20466;-72
2022/10/01 02:24:58;;;;;;;13.00;11.80;;;;;;;13.62;100.00;99656.13;5006150;28;20036;-73
2022/10/01 02:27:43;;;;;;;13.45;12.35;;;;;;;13.65;100.00;99656.66;5006130;28;20038;-72
2022/10/01 02:30:09;;;;;;;13.65;12.43;;;;;;;13.68;100.00;99650.19;5008395;28;20056;-72
2022/10/01 02:32:37;;;;;;;13.05;12.05;;;;;;;13.71;100.00;99655.19;5008117;28;20037;-72
2022/10/01 02:35:06;;;;;;;13.40;12.20;;;;;;;13.73;100.00;99653.19;5006473;28;20100;-72
2022/10/01 02:37:33;;;;;;;13.40;12.13;;;;;;;13.75;100.00;99661.84;5008397;28;20025;-72
2022/10/01 02:40:01;;;;;;;12.88;11.77;;;;;;;13.76;100.00;99664.34;5007234;28;20440;-72
2022/10/01 02:42:29;;;;;;;13.50;12.32;;;;;;;13.74;100.00;99665.47;5005049;28;20042;-73
2022/10/01 02:44:56;;;;;;;13.77;12.73;;;;;;;13.63;100.00;99658.66;5008164;28;20040;-73
2022/10/01 02:47:36;;;;;;;14.65;13.35;;;;;;;13.61;100.00;99665.91;5006635;28;20037;-73
2022/10/01 02:50:03;;;;;;;15.63;14.13;;;;;;;13.57;100.00;99663.75;5008706;28;20046;-72
2022/10/01 02:52:54;;;;;;;14.35;12.98;;;;;;;13.57;100.00;99669.06;5004283;28;20499;-73
2022/10/01 02:55:27;;;;;;;15.63;14.13;;;;;;;13.56;100.00;99659.44;5006655;28;20030;-73
2022/10/01 02:57:54;;;;;;;15.02;13.63;;;;;;;13.48;100.00;99676.97;5006072;28;20076;-73
2022/10/01 03:00:20;;;;;;;15.48;14.05;;;;;;;13.48;100.00;99666.38;5006401;28;20022;-72
2022/10/01 03:02:46;;;;;;;17.40;15.55;;;;;;;13.43;100.00;99673.94;5007199;28;20042;-72
2022/10/01 03:05:14;;;;;;;22.13;16.27;;;;;;;13.45;100.00;99671.16;5003002;28;20033;-72
2022/10/01 03:07:39;;;;;;;20.65;16.63;;;;;;;13.43;100.00;99671.28;5006186;28;20030;-72
2022/10/01 03:10:07;;;;;;;18.92;16.92;;;;;;;13.48;100.00;99670.84;5006083;28;20038;-72
2022/10/01 03:12:34;;;;;;;18.17;16.27;;;;;;;13.52;100.00;99673.03;5009229;28;20076;-72
2022/10/01 03:14:59;;;;;;;17.90;16.10;;;;;;;13.52;100.00;99667.72;5004354;28;20038;-73
2022/10/01 03:17:25;;;;;;;20.70;18.05;;;;;;;13.53;100.00;99664.09;5006137;28;20081;-72
2022/10/01 03:19:50;;;;;;;19.42;17.42;;;;;;;13.49;100.00;99668.00;5006724;28;20038;-72
2022/10/01 03:22:21;;;;;;;20.13;17.92;;;;;;;13.47;100.00;99671.84;5003232;28;20092;-72
2022/10/01 03:24:50;;;;;;;20.35;18.05;;;;;;;13.46;100.00;99668.34;5005144;28;20495;-73
2022/10/01 03:27:16;;;;;;;21.60;17.23;;;;;;;13.45;100.00;99677.28;5006626;28;20037;-73
2022/10/01 03:29:42;;;;;;;19.05;17.02;;;;;;;13.51;100.00;99681.94;5013723;28;20033;-72
2022/10/01 03:32:08;;;;;;;20.67;16.80;;;;;;;13.55;100.00;99681.66;5009518;28;20045;-73
2022/10/01 03:34:33;;;;;;;19.42;17.33;;;;;;;13.58;100.00;99681.31;5010052;28;20084;-72
2022/10/01 03:36:59;;;;;;;19.13;16.45;;;;;;;13.63;100.00;99679.03;5011450;28;20034;-72
2022/10/01 03:39:24;;;;;;;18.42;16.48;;;;;;;13.64;100.00;99680.69;5011043;28;20041;-71
2022/10/01 03:41:49;;;;;;;17.40;15.15;;;;;;;13.65;100.00;99677.06;5011845;28;20030;-72
2022/10/01 03:44:15;;;;;;;20.55;16.92;;;;;;;13.66;100.00;99676.06;5007479;28;20471;-71
2022/10/01 03:46:40;;;;;;;22.80;17.55;;;;;;;13.69;100.00;99673.09;5013209;28;20034;-72
2022/10/01 03:49:06;;;;;;;20.27;17.08;;;;;;;13.73;100.00;99674.41;5010016;28;20830;-71
2022/10/01 03:51:32;;;;;;;19.90;17.63;;;;;;;13.72;100.00;99672.78;5009746;28;20029;-72
2022/10/01 03:53:57;;;;;;;19.98;17.23;;;;;;;13.73;100.00;99674.41;5010408;28;20501;-72
2022/10/01 03:56:24;;;;;;;20.20;17.75;;;;;;;13.71;100.00;99668.47;5010329;28;20068;-72
2022/10/01 03:58:50;;;;;;;20.75;17.45;;;;;;;13.74;100.00;99673.44;5011694;28;20046;-72
2022/10/01 04:01:16;;;;;;;21.95;17.75;;;;;;;13.71;100.00;99671.94;5007309;28;20080;-72
2022/10/01 04:03:42;;;;;;;19.58;17.55;;;;;;;13.69;100.00;99679.22;5012479;28;20366;-72
2022/10/01 04:06:09;;;;;;;19.25;17.25;;;;;;;13.68;100.00;99682.03;5005861;28;20041;-72
2022/10/01 04:08:34;;;;;;;22.55;18.52;;;;;;;13.64;100.00;99676.22;5005487;28;20128;-71
2022/10/01 04:11:00;;;;;;;19.58;17.45;;;;;;;13.69;100.00;99681.03;5010369;28;20026;-72
2022/10/01 04:13:26;;;;;;;20.63;18.40;;;;;;;13.65;100.00;99677.06;5009030;28;20084;-72
2022/10/01 04:15:53;;;;;;;21.40;18.30;;;;;;;13.57;100.00;99669.06;5011390;28;20486;-72
2022/10/01 04:18:20;;;;;;;21.20;18.45;;;;;;;13.51;100.00;99666.06;5006625;28;20037;-72
2022/10/01 04:20:46;;;;;;;21.90;19.13;;;;;;;13.47;100.00;99670.00;5012443;28;20041;-72
2022/10/01 04:23:13;;;;;;;21.75;18.05;;;;;;;13.43;100.00;99665.19;4991374;28;20482;-71
2022/10/01 04:25:39;;;;;;;20.85;18.63;;;;;;;13.41;100.00;99675.94;5008386;28;20110;-72
2022/10/01 04:28:06;;;;;;;19.85;17.67;;;;;;;13.38;100.00;99678.91;5010258;28;20056;-72
2022/10/01 04:30:35;;;;;;;21.20;17.95;;;;;;;13.44;100.00;99691.53;5008916;28;20046;-72
2022/10/01 04:33:01;;;;;;;20.67;18.10;;;;;;;13.46;100.00;99684.25;5010723;28;20048;-72
2022/10/01 04:35:27;;;;;;;21.63;18.52;;;;;;;13.41;100.00;99675.13;5006487;28;20042;-72
2022/10/01 04:38:02;;;;;;;20.50;18.40;;;;;;;13.42;100.00;99677.63;5010484;28;20109;-73
2022/10/01 04:40:29;;;;;;;21.85;18.95;;;;;;;13.42;100.00;99676.78;5008253;28;20456;-72
2022/10/01 04:42:54;;;;;;;21.20;18.67;;;;;;;13.42;100.00;99682.91;5008020;28;20410;-73
2022/10/01 04:45:19;;;;;;;20.63;18.40;;;;;;;13.42;100.00;99682.91;5009469;28;20029;-72
2022/10/01 04:47:54;;;;;;;21.75;18.75;;;;;;;13.42;100.00;99682.91;5009031;28;20038;-72
2022/10/01 04:50:21;;;;;;;21.20;17.77;;;;;;;13.43;100.00;99681.91;5009000;28;20089;-72
2022/10/01 04:52:49;;;;;;;20.48;17.05;;;;;;;13.43;100.00;99684.56;4989335;28;20501;-72
2022/10/01 04:55:17;;;;;;;20.70;18.50;;;;;;;13.44;100.00;99680.91;5007926;28;20041;-73
2022/10/01 04:57:42;;;;;;;23.25;18.92;;;;;;;13.41;100.00;99686.56;5007893;28;20057;-73
2022/10/01 05:00:15;;;;;;;20.15;17.75;;;;;;;13.39;100.00;99687.69;5008193;28;20172;-72
2022/10/01 05:02:44;;;;;;;19.75;17.38;;;;;;;13.38;100.00;99691.31;5002408;28;20044;-73
2022/10/01 05:05:09;;;;;;;22.23;18.65;;;;;;;13.41;100.00;99693.66;5005084;28;20395;-72
2022/10/01 05:07:35;;;;;;;20.85;18.45;;;;;;;13.38;100.00;99697.44;5009193;28;20088;-72
2022/10/01 05:10:01;;;;;;;22.80;18.13;;;;;;;13.39;100.00;99687.69;5004000;28;20042;-73
2022/10/01 05:12:27;;;;;;;23.48;18.10;;;;;;;13.36;100.00;99683.53;5011459;28;20382;-73
2022/10/01 05:14:56;;;;;;;21.13;17.70;;;;;;;13.38;100.00;99686.84;5007187;28;20037;-74
2022/10/01 05:17:23;;;;;;;22.92;19.55;;;;;;;13.39;100.00;99672.63;5008371;28;20094;-74
2022/10/01 05:19:49;;;;;;;22.70;18.90;;;;;;;13.39;100.00;99667.31;5008913;28;20128;-74
2022/10/01 05:22:15;;;;;;;20.20;17.20;;;;;;;13.34;100.00;99669.59;5004667;28;20104;-73
2022/10/01 05:24:42;;;;;;;20.42;18.00;;;;;;;13.32;100.00;99671.56;5010684;28;20038;-74
2022/10/01 05:27:12;;;;;;;20.10;17.35;;;;;;;13.33;100.00;99673.25;5005450;28;20384;-73
2022/10/01 05:29:41;;;;;;;22.23;17.92;;;;;;;13.32;100.00;99678.69;4994256;28;20034;-73
2022/10/01 05:32:08;;;;;;;;;;;;;;;13.29;100.00;99687.81;5007098;28;20096;-74
2022/10/01 05:34:34;;;;;;;22.45;17.45;;;;;;;13.24;100.00;99694.56;5007459;28;19921;-73
2022/10/01 05:37:01;;;;;;;20.23;18.08;;;;;;;13.23;100.00;99693.72;5008520;28;20112;-72
2022/10/01 05:39:27;;;;;;;21.88;19.20;;;;;;;13.22;100.00;99691.22;5009142;28;20523;-74
2022/10/01 05:41:54;;;;;;;21.15;18.48;;;;;;;13.19;100.00;99707.44;5009533;28;20117;-75
2022/10/01 05:44:21;;;;;;;25.40;19.30;;;;;;;13.14;100.00;99710.53;5005769;28;20034;-73
2022/10/01 05:46:47;;;;;;;22.73;18.27;;;;;;;13.14;100.00;99721.16;5010727;28;20471;-74
2022/10/01 05:49:12;;;;;;;22.80;18.52;;;;;;;13.16;100.00;99729.78;5005862;28;20065;-74
2022/10/01 05:51:38;;;;;;;22.35;18.83;;;;;;;13.15;100.00;99732.56;5007237;28;20446;-73
2022/10/01 05:54:03;;;;;;;20.77;18.42;;;;;;;13.15;100.00;99728.09;4997338;28;20045;-72
2022/10/01 05:56:29;;;;;;;20.83;18.20;;;;;;;13.12;100.00;99739.03;4996613;28;20030;-73
2022/10/01 05:58:54;;;;;;;21.67;18.40;;;;;;;13.11;100.00;99737.34;4998265;28;20029;-74
2022/10/01 06:01:20;;;;;;;19.52;17.42;;;;;;;13.19;100.00;99732.13;5008589;28;20057;-74
2022/10/01 06:03:50;;;;;;;20.95;18.08;;;;;;;13.24;100.00;99721.91;5008018;28;20041;-75
2022/10/01 06:06:23;;;;;;;23.50;18.45;;;;;;;13.30;100.00;99725.75;5004320;28;20026;-74
2022/10/01 06:08:49;;;;;;;22.48;18.80;;;;;;;13.34;100.00;99722.63;5003359;28;20139;-73
2022/10/01 06:11:15;;;;;;;20.42;17.63;;;;;;;13.34;100.00;99727.91;5004257;28;20041;-74
2022/10/01 06:13:43;;;;;;;23.38;19.77;;;;;;;13.34;100.00;99724.44;5007171;28;20042;-74
2022/10/01 06:16:10;;;;;;;19.38;17.30;;;;;;;13.35;100.00;99729.59;5002614;28;20683;-74
2022/10/01 06:18:35;;;;;;;19.65;16.63;;;;;;;13.38;100.00;99729.25;4995729;28;20558;-75
2022/10/01 06:21:01;;;;;;;19.15;17.13;;;;;;;13.41;100.00;99722.81;5002036;28;20063;-72
2022/10/01 06:23:27;;;;;;;19.90;17.60;;;;;;;13.45;100.00;99717.03;5006653;28;20032;-73
2022/10/01 06:25:53;;;;;;;24.58;17.75;;;;;;;13.50;100.00;99722.69;4990898;28;20034;-76
2022/10/01 06:28:19;;;;;;;21.30;18.02;;;;;;;13.52;100.00;99723.38;5007066;28;20417;-85
2022/10/01 06:30:44;;;;;;;20.05;17.95;;;;;;;13.52;100.00;99731.34;5003599;28;20076;-81
2022/10/01 06:33:13;;;;;;;20.92;17.42;;;;;;;13.62;100.00;99741.81;5002427;28;20453;-84
2022/10/01 06:35:43;;;;;;;20.95;18.75;;;;;;;13.63;100.00;99747.97;5006239;28;20029;-82
2022/10/01 06:38:10;;;;;;;20.80;17.83;;;;;;;13.70;100.00;99749.00;5010563;28;20042;-85
2022/10/01 06:40:36;;;;;;;21.02;17.60;;;;;;;13.74;100.00;99750.34;5005225;28;20410;-84
2022/10/01 06:43:02;;;;;;;19.85;17.73;;;;;;;13.73;100.00;99759.28;5007756;28;20046;-80
2022/10/01 06:48:17;;;;;;;21.65;17.70;;;;;;;13.48;100.00;99783.03;5006544;28;20030;-82
2022/10/01 06:50:43;;;;;;;20.17;17.00;;;;;;;13.38;100.00;99782.28;5009119;28;20042;-80
2022/10/01 06:53:10;;;;;;;19.95;15.88;;;;;;;13.38;100.00;99776.97;5009591;28;20044;-79
2022/10/01 06:55:36;;;;;;;18.60;15.13;;;;;;;13.56;100.00;99786.69;4989810;28;20399;-80
2022/10/01 06:58:07;;;;;;;15.68;14.00;;;;;;;13.45;100.00;99788.63;5006460;28;20034;-79
2022/10/01 07:00:33;;;;;;;;;;;;;;;13.56;100.00;99799.94;5002290;28;20113;-81
2022/10/01 07:03:00;;;;;;;15.05;13.55;;;;;;;13.69;100.00;99789.75;5006656;28;20017;-80
2022/10/01 07:05:26;;;;;;;13.90;12.38;;;;;;;13.83;100.00;99783.88;5004818;28;20034;-79
2022/10/01 07:07:52;;;;;;;13.98;12.57;;;;;;;13.91;100.00;99789.22;5009435;28;20020;-79
2022/10/01 07:10:19;;;;;;;12.45;11.25;;;;;;;13.92;100.00;99788.22;5005080;28;20040;-79
2022/10/01 07:12:48;;;;;;;11.73;10.52;;;;;;;13.89;100.00;99791.22;5006392;28;20479;-80
2022/10/01 07:15:17;;;;;;;12.25;11.15;;;;;;;13.89;100.00;99801.81;5007670;28;20026;-81
2022/10/01 07:17:45;;;;;;;12.35;11.05;;;;;;;13.84;100.00;99804.13;4992173;28;20033;-80
2022/10/01 07:20:11;;;;;;;11.68;10.60;;;;;;;13.74;100.00;99806.03;5007855;28;20038;-80
2022/10/01 07:22:36;;;;;;;12.10;10.90;;;;;;;13.85;100.00;99800.47;5013737;28;20026;-83
2022/10/01 07:25:02;;;;;;;12.80;11.60;;;;;;;13.89;100.00;99797.34;5011239;28;20124;-84
2022/10/01 07:27:29;;;;;;;11.98;10.73;;;;;;;14.04;100.00;99800.22;5021028;28;20030;-81
2022/10/01 07:29:57;;;;;;;13.25;10.93;;;;;;;14.11;100.00;99805.72;5025516;28;20045;-83
2022/10/01 07:32:24;;;;;;;11.35;10.20;;;;;;;14.09;100.00;99808.53;5028249;28;20030;-84
2022/10/01 07:34:49;;;;;;;11.10;10.10;;;;;;;14.06;100.00;99814.19;5031269;28;20085;-84
2022/10/01 07:37:15;;;;;;;11.25;10.15;;;;;;;14.14;100.00;99806.25;5024766;28;20049;-83
2022/10/01 07:39:40;;;;;;;11.27;10.10;;;;;;;14.24;100.00;99806.13;5013140;28;20052;-84
2022/10/01 07:42:06;;;;;;;11.98;10.77;;;;;;;14.29;100.00;99815.28;4995000;28;20049;-84
2022/10/01 07:44:32;;;;;;;12.05;10.88;;;;;;;14.27;100.00;99808.44;5010422;28;20076;-84
2022/10/01 07:46:57;;;;;;;12.88;11.63;;;;;;;14.28;100.00;99813.59;5002671;28;20105;-83
2022/10/01 07:49:24;;;;;;;13.60;12.20;;;;;;;14.38;100.00;99804.69;5005654;28;20034;-82
2022/10/01 07:51:53;;;;;;;13.68;11.98;;;;;;;14.42;100.00;99792.78;5006479;28;20060;-82
2022/10/01 07:54:20;;;;;;;13.85;12.48;;;;;;;14.45;100.00;99792.44;5011917;28;20399;-83
2022/10/01 07:56:47;;;;;;;14.15;12.75;;;;;;;14.43;100.00;99789.94;5010840;28;20050;-82
2022/10/01 07:59:12;;;;;;;13.95;12.65;;;;;;;14.55;100.00;99798.47;5015724;28;20041;-83
2022/10/01 08:01:39;;;;;;;13.43;12.13;;;;;;;14.62;100.00;99799.47;5003873;28;20398;-82
2022/10/01 08:05:16;;;;;;;12.98;11.68;;;;;;;14.67;100.00;99810.41;4995666;28;20035;-77
2022/10/01 08:06:52;;;;;;;12.50;11.23;;;;;;;14.78;100.00;99810.13;5005420;28;20100;-74
2022/10/01 08:09:18;;;;;;;11.85;10.73;;;;;;;14.72;100.00;99816.09;5001078;28;20042;-73
2022/10/01 08:11:44;;;;;;;10.13;9.20;;;;;;;14.78;100.00;99823.44;5006405;28;20034;-72
2022/10/01 08:14:11;;;;;;;11.15;10.05;;;;;;;14.60;100.00;99814.75;5010720;28;20054;-73
2022/10/01 08:16:39;;;;;;;9.55;8.68;;;;;;;14.70;100.00;99820.75;5005017;28;20489;-73
2022/10/01 08:19:08;;;;;;;12.68;9.75;;;;;;;14.79;100.00;99819.75;5009342;28;20113;-72
2022/10/01 08:21:34;;;;;;;10.90;9.90;;;;;;;14.91;100.00;99810.47;5009652;28;20517;-73
2022/10/01 08:24:04;;;;;;;11.68;9.75;;;;;;;15.02;100.00;99818.13;5003832;28;20088;-73
2022/10/01 08:26:30;;;;;;;12.02;9.25;;;;;;;15.07;100.00;99813.16;5009505;28;20022;-72
2022/10/01 08:28:55;;;;;;;10.65;9.55;;;;;;;15.19;100.00;99815.50;5006358;28;20057;-73
2022/10/01 08:31:21;;;;;;;11.13;10.02;;;;;;;15.34;100.00;99817.31;5003549;28;20121;-73
2022/10/01 08:33:46;;;;;;;10.10;9.20;;;;;;;15.44;100.00;99814.47;5009931;28;20044;-72
2022/10/01 08:36:12;;;;;;;10.55;9.55;;;;;;;15.56;100.00;99815.81;5011249;28;20829;-77
2022/10/01 08:38:39;;;;;;;11.15;9.85;;;;;;;15.65;100.00;99819.31;5000367;28;20031;-73
2022/10/01 08:41:25;;;;;;;10.07;9.18;;;;;;;15.71;100.00;99814.16;4979074;28;20049;-72
2022/10/01 08:43:52;;;;;;;9.60;8.57;;;;;;;15.82;100.00;99813.78;5005913;28;20029;-72
2022/10/01 08:46:24;;;;;;;9.07;8.18;;;;;;;15.90;100.00;99813.75;5005804;28;20168;-75
2022/10/01 08:49:22;;;;;;;7.90;7.15;;;;;;;15.96;100.00;99813.06;4999857;28;20078;-74
2022/10/01 08:51:56;;;;;;;7.80;6.63;;;;;;;15.95;100.00;99816.75;5008620;28;20128;-75
2022/10/01 08:54:38;;;;;;;8.40;7.60;;;;;;;15.93;100.00;99817.91;4998767;28;20037;-82
2022/10/01 08:57:10;;;;;;;10.10;9.10;;;;;;;15.87;100.00;99819.44;4999150;28;20129;-74
2022/10/01 08:59:46;;;;;;;9.13;8.27;;;;;;;15.92;100.00;99822.41;4998283;28;20041;-73
2022/10/01 09:02:23;;;;;;;9.95;7.95;;;;;;;15.93;100.00;99824.06;4996105;28;20595;-73
2022/10/01 09:04:55;;;;;;;7.90;7.28;;;;;;;15.92;100.00;99826.91;4997732;28;20481;-74
2022/10/01 09:07:32;;;;;;;8.40;7.70;;;;;;;15.94;100.00;99825.75;4999128;28;20038;-77
2022/10/01 09:10:29;;;;;;;8.90;8.10;;;;;;;16.00;100.00;99824.22;4997936;28;20385;-76
2022/10/01 09:13:21;;;;;;;8.40;7.65;;;;;;;15.96;100.00;99813.06;4976417;28;20053;-76
2022/10/01 09:16:05;;;;;;;8.15;7.38;;;;;;;16.05;100.00;99810.41;4998547;28;20146;-74
2022/10/01 09:18:50;;;;;;;8.45;7.68;;;;;;;16.06;100.00;99809.41;4997860;28;20038;-75
2022/10/01 09:21:26;;;;;;;7.28;6.57;;;;;;;16.10;100.00;99813.38;4995874;28;20084;-76
2022/10/01 09:24:03;;;;;;;7.63;6.95;;;;;;;16.14;100.00;99814.72;4995261;28;20030;-74
2022/10/01 09:26:29;;;;;;;7.78;7.18;;;;;;;16.05;100.00;99821.03;4980306;28;20706;-76
2022/10/01 09:28:59;;;;;;;7.53;6.30;;;;;;;16.08;100.00;99826.84;4996845;28;20038;-75
2022/10/01 09:31:36;;;;;;;8.55;7.85;;;;;;;16.11;100.00;99809.72;4996203;28;20045;-74
2022/10/01 09:34:11;;;;;;;7.75;7.00;;;;;;;16.09;100.00;99804.53;4997317;28;20046;-76
2022/10/01 09:36:45;;;;;;;8.60;7.82;;;;;;;16.09;100.00;99801.06;4997097;28;20156;-75
2022/10/01 09:39:17;;;;;;;7.68;6.97;;;;;;;16.11;100.00;99801.72;4996944;28;20069;-75
2022/10/01 09:41:44;;;;;;;8.25;7.55;;;;;;;16.11;100.00;99801.72;4996500;28;20053;-76
2022/10/01 09:44:36;;;;;;;8.38;6.65;;;;;;;16.11;100.00;99804.38;4996983;28;20164;-74
2022/10/01 09:47:02;;;;;;;7.43;6.80;;;;;;;16.14;100.00;99793.41;4992275;28;20054;-75
2022/10/01 09:49:38;;;;;;;8.02;7.15;;;;;;;16.20;100.00;99798.03;4997951;28;21054;-75
2022/10/01 09:52:12;;;;;;;7.82;7.13;;;;;;;16.28;100.00;99779.34;4992093;28;20049;-75
2022/10/01 09:54:44;;;;;;;8.15;6.07;;;;;;;16.36;100.00;99776.66;4995359;28;20379;-75
2022/10/01 09:57:15;;;;;;;7.30;6.18;;;;;;;16.48;100.00;99785.91;4994400;28;20053;-75
2022/10/01 10:00:01;;;;;;;8.13;6.45;;;;;;;16.51;100.00;99780.22;4994451;28;20037;-75
2022/10/01 10:02:38;;;;;;;7.25;6.65;;;;;;;16.56;100.00;99783.19;4996289;28;20049;-74
2022/10/01 10:05:11;;;;;;;7.70;7.00;;;;;;;16.59;100.00;99788.22;4995537;28;20342;-74
2022/10/01 10:07:38;;;;;;;7.55;6.95;;;;;;;16.58;100.00;99799.00;4996457;28;21194;-76
2022/10/01 10:10:18;;;;;;;7.32;6.68;;;;;;;16.56;100.00;99787.69;4995592;28;20512;-79
2022/10/01 10:12:44;;;;;;;6.50;6.00;;;;;;;16.62;100.00;99793.16;4993535;28;20490;-75
2022/10/01 10:15:19;;;;;;;6.57;6.07;;;;;;;16.66;100.00;99794.50;4994820;28;20037;-78
2022/10/01 10:17:49;;;;;;;7.85;7.03;;;;;;;16.65;100.00;99784.84;4996486;28;20537;-77
2022/10/01 10:20:29;;;;;;;6.80;6.20;;;;;;;16.70;100.00;99771.81;4996133;28;20042;-77
2022/10/01 10:23:06;;;;;;;6.43;5.78;;;;;;;16.75;100.00;99788.09;4994698;28;20065;-77
2022/10/01 10:25:31;;;;;;;8.18;7.47;;;;;;;16.77;100.00;99794.09;4996442;28;20077;-77
2022/10/01 10:27:58;;;;;;;7.95;7.25;;;;;;;16.83;100.00;99786.41;4995053;28;20219;-77
2022/10/01 10:30:25;;;;;;;7.40;6.75;;;;;;;16.77;100.00;99795.94;4996530;28;20053;-78
2022/10/01 10:32:52;;;;;;;7.43;6.78;;;;;;;16.71;100.00;99797.47;4994290;28;20038;-78
2022/10/01 10:35:27;;;;;;;7.00;6.47;;;;;;;16.76;100.00;99784.44;4995270;28;20742;-78
2022/10/01 10:37:56;;;;;;;8.25;6.03;;;;;;;16.88;100.00;99776.03;4995152;28;20037;-80
2022/10/01 10:40:25;;;;;;;7.22;5.80;;;;;;;16.98;100.00;99756.13;4994867;28;20042;-80
2022/10/01 10:42:53;;;;;;;6.00;5.50;;;;;;;17.07;100.00;99756.88;4991170;28;20487;-76
2022/10/01 10:45:35;;;;;;;5.70;5.20;;;;;;;17.19;100.00;99747.44;4649761;28;9999769;-77
2022/10/01 10:48:11;;;;;;;4.95;4.55;;;;;;;17.19;100.00;99761.63;4997373;28;20243;-79
2022/10/01 10:50:39;;;;;;;4.50;4.18;;;;;;;17.19;100.00;99768.78;4994393;28;20053;-79
2022/10/01 10:53:23;;;;;;;6.20;4.50;;;;;;;17.24;100.00;99771.75;4995666;28;20045;-77
2022/10/01 10:56:04;;;;;;;4.68;4.38;;;;;;;17.31;100.00;99772.69;4996332;28;20449;-77
2022/10/01 10:58:33;;;;;;;4.22;3.83;;;;;;;17.38;100.00;99767.44;4997080;28;20030;-76
2022/10/01 11:01:04;;;;;;;5.40;4.90;;;;;;;17.42;100.00;99756.22;4995396;28;20443;-77
2022/10/01 11:03:31;;;;;;;5.85;4.55;;;;;;;17.47;100.00;99764.53;4995664;28;20069;-76
2022/10/01 11:06:07;;;;;;;4.40;4.00;;;;;;;17.51;100.00;99773.81;4993885;28;20099;-77
2022/10/01 11:08:34;;;;;;;3.88;3.58;;;;;;;17.59;100.00;99771.06;4994059;28;20038;-77
2022/10/01 11:11:23;;;;;;;4.03;3.33;;;;;;;17.72;100.00;99764.31;4992060;28;20052;-79
2022/10/01 11:13:57;;;;;;;4.63;3.85;;;;;;;17.79;100.00;99759.88;4962219;28;20045;-78
2022/10/01 11:16:59;;;;;;;4.35;3.28;;;;;;;17.87;100.00;99759.78;4997365;28;20042;-83
2022/10/01 11:19:39;;;;;;;3.85;3.55;;;;;;;17.94;100.00;99758.88;4958624;28;20122;-79
2022/10/01 11:22:39;;;;;;;3.75;3.45;;;;;;;18.07;100.00;99760.88;4992355;28;20037;-78
2022/10/01 11:25:37;;;;;;;3.00;2.80;;;;;;;18.18;100.00;99765.75;4997337;28;20054;-80
2022/10/01 11:28:32;;;;;;;3.92;2.40;;;;;;;18.27;100.00;99753.94;4963460;28;20053;-80
2022/10/01 11:31:13;;;;;;;4.28;3.17;;;;;;;18.39;100.00;99748.94;4994690;28;20042;-78
2022/10/01 11:33:43;;;;;;;2.83;2.63;;;;;;;18.47;100.00;99748.00;4980114;28;20042;-80
2022/10/01 11:36:24;;;;;;;3.15;2.95;;;;;;;18.42;100.00;99741.38;4996699;28;20053;-79
2022/10/01 11:39:05;;;;;;;3.08;2.80;;;;;;;18.40;100.00;99738.06;4995424;28;20038;-78
2022/10/01 11:41:45;;;;;;;2.50;2.40;;;;;;;18.54;100.00;99722.19;4992004;28;20135;-78
2022/10/01 11:44:26;;;;;;;2.45;1.73;;;;;;;18.71;100.00;99718.28;4990829;28;20543;-80